createdAt,value
2022-12-25T00:02:13.639Z,100.00
2022-12-25T00:07:15.809Z,100.00
2022-12-25T00:12:19.380Z,100.00
2022-12-25T00:17:21.425Z,100.00
2022-12-25T00:22:23.480Z,100.00
2022-12-25T00:27:25.491Z,100.00
2022-12-25T00:32:27.581Z,100.00
2022-12-25T00:37:29.635Z,100.00
2022-12-25T00:42:31.799Z,100.00
2022-12-25T00:47:33.790Z,100.00
2022-12-25T00:52:35.805Z,100.00
2022-12-25T00:57:37.744Z,100.00
2022-12-25T01:02:39.801Z,100.00
2022-12-25T01:07:41.841Z,100.00
2022-12-25T01:12:44.219Z,100.00
2022-12-25T01:17:46.660Z,100.00
2022-12-25T01:22:48.715Z,100.00
2022-12-25T01:27:50.798Z,100.00
2022-12-25T01:32:52.865Z,100.00
2022-12-25T01:37:55.468Z,100.00
2022-12-25T01:42:57.428Z,100.00
2022-12-25T01:48:01.941Z,100.00
2022-12-25T01:53:04.701Z,100.00
2022-12-25T01:58:06.937Z,100.00
2022-12-25T02:03:09.032Z,100.00
2022-12-25T02:08:12.538Z,100.00
2022-12-25T02:13:16.252Z,100.00
2022-12-25T02:18:46.431Z,100.00
2022-12-25T02:24:37.659Z,100.00
2022-12-25T02:30:05.764Z,100.00
2022-12-25T02:35:10.801Z,100.00
2022-12-25T02:40:28.442Z,100.00
2022-12-25T02:46:03.145Z,100.00
2022-12-25T02:51:25.431Z,100.00
2022-12-25T02:56:47.277Z,100.00
2022-12-25T03:02:25.536Z,100.00
2022-12-25T03:07:28.435Z,100.00
2022-12-25T03:12:42.083Z,100.00
2022-12-25T03:17:50.344Z,100.00
2022-12-25T03:23:11.145Z,100.00
2022-12-25T03:28:13.102Z,100.00
2022-12-25T03:33:44.383Z,100.00
2022-12-25T03:39:32.860Z,100.00
2022-12-25T03:45:14.436Z,100.00
2022-12-25T03:50:47.145Z,100.00
2022-12-25T03:56:07.999Z,100.00
2022-12-25T04:01:28.797Z,100.00
2022-12-25T04:06:49.325Z,100.00
2022-12-25T04:12:09.962Z,100.00
2022-12-25T04:17:30.760Z,100.00
2022-12-25T04:22:51.493Z,100.00
2022-12-25T04:28:12.185Z,100.00
2022-12-25T04:33:33.211Z,100.00
2022-12-25T04:38:37.302Z,100.00
2022-12-25T04:43:39.273Z,100.00
2022-12-25T04:48:41.263Z,100.00
2022-12-25T04:53:43.727Z,100.00
2022-12-25T04:58:46.025Z,100.00
2022-12-25T05:03:48.146Z,100.00
2022-12-25T05:08:50.249Z,100.00
2022-12-25T05:13:52.252Z,100.00
2022-12-25T05:18:54.350Z,100.00
2022-12-25T05:23:56.271Z,100.00
2022-12-25T05:28:59.495Z,100.00
2022-12-25T05:34:01.678Z,100.00
2022-12-25T05:39:03.660Z,100.00
2022-12-25T05:44:05.729Z,100.00
2022-12-25T05:49:07.900Z,100.00
2022-12-25T05:55:19.923Z,100.00
2022-12-25T06:00:21.862Z,100.00
2022-12-25T06:05:23.847Z,100.00
2022-12-25T06:10:25.879Z,100.00
2022-12-25T06:15:27.891Z,100.00
2022-12-25T06:21:40.103Z,100.00
2022-12-25T06:26:42.537Z,100.00
2022-12-25T06:31:49.904Z,100.00
2022-12-25T06:36:51.984Z,100.00
2022-12-25T06:41:53.995Z,100.00
2022-12-25T06:46:55.977Z,100.00
2022-12-25T06:51:57.922Z,100.00
2022-12-25T06:56:59.931Z,100.00
2022-12-25T07:02:03.077Z,100.00
2022-12-25T07:07:09.178Z,100.00
2022-12-25T07:12:17.443Z,100.00
2022-12-25T07:17:20.666Z,100.00
2022-12-25T07:22:22.755Z,100.00
2022-12-25T07:27:24.794Z,100.00
2022-12-25T07:32:30.770Z,100.00
2022-12-25T07:37:32.743Z,100.00
2022-12-25T07:42:34.811Z,100.00
2022-12-25T07:47:36.819Z,100.00
2022-12-25T07:52:43.383Z,100.00
2022-12-25T07:57:45.803Z,100.00
2022-12-25T08:02:50.915Z,100.00
2022-12-25T08:07:57.646Z,100.00
2022-12-25T08:13:00.418Z,100.00
2022-12-25T08:18:02.484Z,100.00
2022-12-25T08:23:05.110Z,100.00
2022-12-25T08:28:06.971Z,100.00
2022-12-25T08:33:08.931Z,100.00
2022-12-25T08:38:10.931Z,100.00
2022-12-25T08:43:12.975Z,100.00
2022-12-25T08:48:14.951Z,100.00
2022-12-25T08:53:17.476Z,100.00
2022-12-25T08:58:19.893Z,100.00
2022-12-25T09:03:22.680Z,100.00
2022-12-25T09:08:24.696Z,100.00
2022-12-25T09:13:26.771Z,100.00
2022-12-25T09:18:28.868Z,100.00
2022-12-25T09:23:31.407Z,100.00
2022-12-25T09:28:33.926Z,97.34
2022-12-25T09:33:36.428Z,90.72
2022-12-25T09:38:38.538Z,86.65
2022-12-25T09:44:07.080Z,86.69
2022-12-25T09:49:24.520Z,91.17
2022-12-25T09:54:38.154Z,93.02
2022-12-25T09:59:41.907Z,91.36
2022-12-25T10:04:56.079Z,88.90
2022-12-25T10:10:20.666Z,82.33
2022-12-25T10:15:40.462Z,78.25
2022-12-25T10:20:55.839Z,77.55
2022-12-25T10:25:58.146Z,76.55
2022-12-25T10:31:02.648Z,74.48
2022-12-25T10:36:06.965Z,75.06
2022-12-25T10:41:19.855Z,74.86
2022-12-25T10:46:23.934Z,71.33
2022-12-25T10:51:34.291Z,72.26
2022-12-25T10:56:36.422Z,74.90
2022-12-25T11:01:38.548Z,77.08
2022-12-25T11:06:40.467Z,80.38
2022-12-25T11:11:42.440Z,80.85
2022-12-25T11:16:44.657Z,81.80
2022-12-25T11:21:51.715Z,81.76
2022-12-25T11:26:56.777Z,82.18
2022-12-25T11:32:00.492Z,82.22
2022-12-25T11:37:03.991Z,81.01
2022-12-25T11:49:19.150Z,80.69
2022-12-25T11:54:31.843Z,82.96
2022-12-25T11:59:49.430Z,81.62
2022-12-25T12:04:53.990Z,83.04
2022-12-25T12:10:18.363Z,82.67
2022-12-25T12:15:30.310Z,83.51
2022-12-25T12:20:34.754Z,83.64
2022-12-25T12:25:40.495Z,83.49
2022-12-25T12:30:42.701Z,81.59
2022-12-25T12:35:44.859Z,83.62
2022-12-25T12:40:57.719Z,83.37
2022-12-25T12:46:15.013Z,81.37
2022-12-25T12:51:33.049Z,81.75
2022-12-25T12:56:35.611Z,82.20
2022-12-25T13:01:52.203Z,80.06
2022-12-25T13:07:58.671Z,82.33
2022-12-25T13:13:10.430Z,83.30
2022-12-25T13:18:13.008Z,82.94
2022-12-25T13:23:36.097Z,82.49
2022-12-25T13:28:38.281Z,82.64
2022-12-25T13:33:41.728Z,82.63
2022-12-25T13:38:49.538Z,83.04
2022-12-25T13:43:51.595Z,82.26
2022-12-25T13:49:01.613Z,81.69
2022-12-25T13:54:05.870Z,82.54
2022-12-25T13:59:16.934Z,83.93
2022-12-25T14:04:21.731Z,83.39
2022-12-25T14:09:24.070Z,87.64
2022-12-25T14:14:26.171Z,86.02
2022-12-25T14:19:30.888Z,85.66
2022-12-25T14:24:34.254Z,84.79
2022-12-25T14:29:38.856Z,85.69
2022-12-25T14:34:43.023Z,85.64
2022-12-25T14:39:48.287Z,84.17
2022-12-25T14:45:05.618Z,86.10
2022-12-25T14:50:15.852Z,86.88
2022-12-25T14:55:21.449Z,85.75
2022-12-25T15:00:32.096Z,84.53
2022-12-25T15:05:37.287Z,83.56
2022-12-25T15:16:06.435Z,83.38
2022-12-25T15:21:23.910Z,84.20
2022-12-25T15:26:29.308Z,82.61
2022-12-25T15:31:34.537Z,81.90
2022-12-25T15:36:40.085Z,82.77
2022-12-25T15:42:01.975Z,84.40
2022-12-25T15:47:07.418Z,86.52
2022-12-25T15:52:15.771Z,88.21
2022-12-25T15:57:26.522Z,87.96
2022-12-25T16:02:29.259Z,88.64
2022-12-25T16:07:34.424Z,89.27
2022-12-25T16:12:39.177Z,90.53
2022-12-25T16:17:41.592Z,89.97
2022-12-25T16:22:44.479Z,90.48
2022-12-25T16:27:47.262Z,91.92
2022-12-25T16:32:51.471Z,91.30
2022-12-25T16:37:54.269Z,91.77
2022-12-25T16:42:56.786Z,92.04
2022-12-25T16:47:58.898Z,91.91
2022-12-25T16:53:01.702Z,92.09
2022-12-25T16:58:04.103Z,92.23
2022-12-25T17:03:07.522Z,92.02
2022-12-25T17:08:09.578Z,92.57
2022-12-25T17:13:11.760Z,93.27
2022-12-25T17:18:13.842Z,93.70
2022-12-25T17:23:15.801Z,94.26
2022-12-25T17:28:17.714Z,93.80
2022-12-25T17:33:19.780Z,94.30
2022-12-25T17:38:21.843Z,94.84
2022-12-25T17:43:23.939Z,94.75
2022-12-25T17:48:25.885Z,94.73
2022-12-25T17:53:28.131Z,94.96
2022-12-25T17:58:30.301Z,94.99
2022-12-25T18:03:32.418Z,95.20
2022-12-25T18:08:39.634Z,95.23
2022-12-25T18:13:44.870Z,95.22
2022-12-25T18:18:51.890Z,94.85
2022-12-25T18:23:54.518Z,95.34
2022-12-25T18:28:57.686Z,95.48
2022-12-25T18:34:00.414Z,96.01
2022-12-25T18:39:04.034Z,95.90
2022-12-25T18:44:06.258Z,96.46
2022-12-25T18:49:08.774Z,96.33
2022-12-25T18:54:10.877Z,96.02
2022-12-25T18:59:12.783Z,95.82
2022-12-25T19:04:17.579Z,96.05
2022-12-25T19:09:20.371Z,95.85
2022-12-25T19:14:22.356Z,95.82
2022-12-25T19:19:25.149Z,95.66
2022-12-25T19:24:27.240Z,95.60
2022-12-25T19:29:29.461Z,95.58
2022-12-25T19:34:31.735Z,95.68
2022-12-25T19:39:33.977Z,95.80
2022-12-25T19:44:36.050Z,95.73
2022-12-25T19:49:39.880Z,96.23
2022-12-25T19:54:43.943Z,96.35
2022-12-25T19:59:45.915Z,96.39
2022-12-25T20:04:48.283Z,96.54
2022-12-25T20:09:50.476Z,96.58
2022-12-25T20:14:52.517Z,96.78
2022-12-25T20:19:54.725Z,96.98
2022-12-25T20:24:56.691Z,96.96
2022-12-25T20:29:58.630Z,96.97
2022-12-25T20:35:00.587Z,97.06
2022-12-25T20:40:03.938Z,97.13
2022-12-25T20:45:07.821Z,97.52
2022-12-25T20:50:10.193Z,97.54
2022-12-25T20:55:15.811Z,97.24
2022-12-25T21:00:18.092Z,97.20
2022-12-25T21:05:22.098Z,97.06
2022-12-25T21:10:24.285Z,97.43
2022-12-25T21:15:27.622Z,97.50
2022-12-25T21:20:29.664Z,97.77
2022-12-25T21:25:31.631Z,97.89
2022-12-25T21:30:33.928Z,97.56
2022-12-25T21:35:40.501Z,97.89
2022-12-25T21:40:43.659Z,97.87
2022-12-25T21:45:46.042Z,97.79
2022-12-25T21:51:06.837Z,98.10
2022-12-25T21:56:09.247Z,98.58
2022-12-25T22:01:11.955Z,99.20
2022-12-25T22:06:35.691Z,99.53
2022-12-25T22:11:58.304Z,99.12
2022-12-25T22:17:19.239Z,98.83
2022-12-25T22:22:23.938Z,99.31
2022-12-25T22:27:32.452Z,99.40
2022-12-25T22:32:34.438Z,99.45
2022-12-25T22:37:37.389Z,99.06
2022-12-25T22:42:39.341Z,99.09
2022-12-25T22:47:41.991Z,99.63
2022-12-25T22:52:46.738Z,99.58
2022-12-25T22:57:50.588Z,100.00
2022-12-25T23:02:52.996Z,99.70
2022-12-25T23:07:55.783Z,99.30
2022-12-25T23:13:16.590Z,99.25
2022-12-25T23:18:39.777Z,99.10
2022-12-25T23:24:00.328Z,99.09
2022-12-25T23:29:24.186Z,99.15
2022-12-25T23:34:26.827Z,99.53
2022-12-25T23:39:29.060Z,100.00
2022-12-25T23:44:31.423Z,100.00
2022-12-25T23:49:33.349Z,100.00
2022-12-25T23:54:35.349Z,99.93
